Béziers-Vias Airport

Airport
ICAO code: 
LFMU
IATA Code: 
BZR
Summary
ICAO Region: 
EUR
Territory: 
Location: 
, Languedoc-Roussillon
Serving: 
Beziers
Elevation: 
56 ft
Coordinates: 
Aerial View: 
43° 19' 24.679" N, 3° 21' 14.051" E
Metar
Observation
LFMU 060700Z AUTO 30010KT 9999 FEW044 07/02 Q1016 NOSIG
Station
Beziers / Vias
Date/Time
2021-12-06 07:00:00
Wind direction
300°
Wind speed
10 kts
Lowest cloud amount
few clouds
Temperature
7°C
Dew point
2°C
Humidity
70%
QNH
1016 hPa
Weather condition
n/a

Runways

Designator Length Width Surface Rops
10/28 1820 30 ASP No/No
Airport map: 
Aerial View: 

SKYbrary Partners:

Safety knowledge contributed by: